Time;durP1;ratioP1;P1;durP2;ratioP2;P2;SDS_P1;SDS_P2;PMS_P1;PMS_P2;Temp;Humidity;BMP_temperature;BMP_pressure;BME280_temperature;BME280_humidity;BME280_pressure;Samples;Min_cycle;Max_cycle;Signal;HPM_P1;HPM_P2
2023/09/21 00:00:50;;;;;;;13.00;2.65;;;;;;;16.51;100.00;94261.03;5054556;28;20035;-81
2023/09/21 00:03:15;;;;;;;9.05;2.60;;;;;;;16.47;100.00;94259.31;5053528;28;20115;-81
2023/09/21 00:05:46;;;;;;;18.17;3.25;;;;;;;16.60;100.00;94252.31;5053446;28;20116;-81
2023/09/21 00:08:11;;;;;;;11.15;2.97;;;;;;;16.89;100.00;94243.03;5069952;28;20025;-81
2023/09/21 00:10:37;;;;;;;17.83;3.30;;;;;;;16.65;100.00;94255.59;5053378;28;20396;-81
2023/09/21 00:13:05;;;;;;;16.55;3.70;;;;;;;16.59;100.00;94251.56;5053671;28;20040;-81
2023/09/21 00:15:31;;;;;;;10.85;2.97;;;;;;;16.73;100.00;94253.28;5054515;28;20058;-81
2023/09/21 00:17:58;;;;;;;17.45;2.92;;;;;;;16.98;100.00;94250.97;5053161;28;20036;-81
2023/09/21 00:20:25;;;;;;;16.85;3.38;;;;;;;16.87;100.00;94258.44;5053298;28;20060;-81
2023/09/21 00:22:51;;;;;;;15.75;3.40;;;;;;;17.34;100.00;94261.28;5040800;28;20024;-81
2023/09/21 00:25:17;;;;;;;17.77;2.85;;;;;;;17.60;100.00;94257.06;5057257;28;20033;-81
2023/09/21 00:27:42;;;;;;;16.88;2.95;;;;;;;17.95;100.00;94255.13;5057184;28;20765;-81
2023/09/21 00:30:08;;;;;;;24.65;2.90;;;;;;;18.09;100.00;94259.47;5057112;28;20112;-81
2023/09/21 00:32:40;;;;;;;16.45;3.05;;;;;;;18.18;100.00;94257.53;5057291;28;20029;-81
2023/09/21 00:35:09;;;;;;;13.50;3.38;;;;;;;18.27;100.00;94252.19;5057012;28;20055;-81
2023/09/21 00:37:39;;;;;;;15.63;3.38;;;;;;;18.36;100.00;94236.25;5056890;28;20400;-81
2023/09/21 00:40:24;;;;;;;12.77;3.17;;;;;;;18.42;100.00;94224.38;5040443;28;20028;-80
2023/09/21 00:42:53;;;;;;;20.70;3.03;;;;;;;18.54;100.00;94212.31;5055824;28;20037;-81
2023/09/21 00:45:21;;;;;;;20.65;3.30;;;;;;;18.39;100.00;94225.03;5030391;28;20394;-80
2023/09/21 00:47:51;;;;;;;18.45;3.55;;;;;;;18.26;100.00;94220.72;5060825;28;20036;-80
2023/09/21 00:50:21;;;;;;;18.60;4.10;;;;;;;18.13;100.00;94211.88;5055133;28;20179;-80
2023/09/21 00:52:53;;;;;;;9.73;3.20;;;;;;;17.69;100.00;94201.41;5051463;28;20048;-80
2023/09/21 00:55:24;;;;;;;21.95;4.85;;;;;;;16.89;100.00;94192.75;5053714;28;20040;-80
2023/09/21 00:57:53;;;;;;;20.98;3.20;;;;;;;17.16;100.00;94194.34;5055880;28;20043;-80
2023/09/21 01:00:18;;;;;;;16.08;3.03;;;;;;;17.31;100.00;94189.66;5056190;28;20480;-80
2023/09/21 01:02:47;;;;;;;11.25;2.90;;;;;;;16.46;100.00;94191.63;5056229;28;20040;-80
2023/09/21 01:05:13;;;;;;;13.30;3.67;;;;;;;16.19;100.00;94196.84;5039771;28;20102;-80
2023/09/21 01:07:40;;;;;;;9.55;3.13;;;;;;;16.38;100.00;94207.16;5057152;28;20119;-80
2023/09/21 01:10:07;;;;;;;13.40;2.90;;;;;;;16.62;100.00;94197.25;5055954;28;20052;-80
2023/09/21 01:12:37;;;;;;;15.93;3.13;;;;;;;16.53;100.00;94198.03;5057168;28;20031;-80
2023/09/21 01:15:13;;;;;;;11.48;3.20;;;;;;;16.83;100.00;94205.34;5055786;28;20450;-80
2023/09/21 01:17:41;;;;;;;12.93;3.50;;;;;;;16.75;100.00;94196.31;5039070;28;20040;-80
2023/09/21 01:20:54;;;;;;;10.75;3.65;;;;;;;16.34;100.00;94192.22;5055941;28;20410;-80
2023/09/21 01:23:11;;;;;;;15.32;3.10;;;;;;;16.65;100.00;94191.38;5045724;28;20041;-80
2023/09/21 01:25:40;;;;;;;17.98;3.85;;;;;;;16.52;100.00;94187.75;5056136;28;20033;-81
2023/09/21 01:28:09;;;;;;;12.98;3.40;;;;;;;16.71;100.00;94171.59;5039634;28;20458;-81
2023/09/21 01:30:35;;;;;;;11.40;3.10;;;;;;;16.76;100.00;94168.78;5057352;28;20029;-81
2023/09/21 01:33:04;;;;;;;15.20;2.85;;;;;;;16.56;100.00;94161.47;5038583;28;20163;-81
2023/09/21 01:35:31;;;;;;;9.93;2.78;;;;;;;16.26;100.00;94146.19;5055924;28;20035;-81
2023/09/21 01:37:57;;;;;;;9.20;2.53;;;;;;;15.93;100.00;94144.72;5055338;28;20513;-81
2023/09/21 01:40:22;;;;;;;10.10;2.97;;;;;;;16.09;100.00;94147.69;5055459;28;20132;-81
2023/09/21 01:42:48;;;;;;;7.95;2.65;;;;;;;16.29;100.00;94153.50;5056965;28;20033;-81
2023/09/21 01:45:16;;;;;;;7.63;2.85;;;;;;;16.29;100.00;94147.44;5057319;28;20396;-81
2023/09/21 01:47:41;;;;;;;17.42;3.55;;;;;;;15.74;100.00;94144.13;5055659;28;20420;-80
2023/09/21 01:50:09;;;;;;;12.20;3.03;;;;;;;16.02;100.00;94131.53;5055738;28;20033;-81
2023/09/21 01:52:35;;;;;;;7.07;2.92;;;;;;;16.28;100.00;94124.72;5055745;28;20123;-80
2023/09/21 01:55:06;;;;;;;14.10;2.20;;;;;;;16.43;100.00;94118.22;5055847;28;20115;-81
2023/09/21 01:57:33;;;;;;;8.48;2.28;;;;;;;16.36;100.00;94116.81;5055471;28;20029;-80
2023/09/21 02:00:01;;;;;;;10.90;2.85;;;;;;;16.28;100.00;94104.34;5055335;28;20035;-81
2023/09/21 02:02:26;;;;;;;9.27;2.67;;;;;;;16.37;100.00;94104.38;5056730;28;20032;-81
2023/09/21 02:04:52;;;;;;;19.05;3.33;;;;;;;16.56;100.00;94113.88;5039041;28;20056;-81
2023/09/21 02:07:18;;;;;;;11.23;3.03;;;;;;;16.45;100.00;94105.47;5055076;28;20033;-80
2023/09/21 02:09:43;;;;;;;10.10;2.92;;;;;;;16.41;100.00;94100.03;5055170;28;20323;-80
2023/09/21 02:12:09;;;;;;;16.20;3.10;;;;;;;16.40;100.00;94107.16;5056200;28;20075;-80
2023/09/21 02:14:34;;;;;;;9.00;2.83;;;;;;;16.32;100.00;94105.31;5038654;28;20029;-81
2023/09/21 02:16:59;;;;;;;10.88;3.45;;;;;;;15.63;100.00;94101.38;5038537;28;20028;-81
2023/09/21 02:19:26;;;;;;;12.98;3.22;;;;;;;15.79;100.00;94105.16;5054885;28;20037;-81
2023/09/21 02:21:51;;;;;;;9.45;2.80;;;;;;;16.18;100.00;94094.84;5055127;28;20381;-80
2023/09/21 02:24:17;;;;;;;7.65;2.78;;;;;;;16.29;100.00;94087.44;5054839;28;20078;-80
2023/09/21 02:26:42;;;;;;;11.93;3.05;;;;;;;16.32;100.00;94091.28;5054987;28;20043;-80
2023/09/21 02:29:11;;;;;;;8.18;2.65;;;;;;;16.48;100.00;94091.63;5038241;28;20060;-80
2023/09/21 02:31:37;;;;;;;10.02;2.75;;;;;;;15.64;100.00;94082.59;5038683;28;20449;-81
2023/09/21 02:34:04;;;;;;;15.43;3.80;;;;;;;15.20;100.00;94092.19;5038600;28;20134;-81
2023/09/21 02:36:31;;;;;;;11.55;3.10;;;;;;;15.32;100.00;94089.75;5054743;28;20025;-80
2023/09/21 02:38:56;;;;;;;14.02;3.20;;;;;;;15.51;100.00;94092.19;5054339;28;20174;-80
2023/09/21 02:41:23;;;;;;;16.85;3.47;;;;;;;15.09;100.00;94094.31;5054515;28;20131;-81
2023/09/21 02:43:48;;;;;;;14.70;3.50;;;;;;;15.04;100.00;94089.94;5038018;28;20512;-81
2023/09/21 02:46:14;;;;;;;18.08;3.50;;;;;;;15.33;100.00;94087.91;5038154;28;20036;-80
2023/09/21 02:48:40;;;;;;;10.95;3.08;;;;;;;15.53;100.00;94076.81;5037991;28;20025;-80
2023/09/21 02:51:06;;;;;;;12.50;3.08;;;;;;;15.59;100.00;94069.53;5054451;28;20032;-80
2023/09/21 02:53:32;;;;;;;10.68;2.80;;;;;;;15.45;100.00;94069.66;5054445;28;20036;-80
2023/09/21 02:55:59;;;;;;;14.18;3.38;;;;;;;15.09;100.00;94070.56;5037928;28;20040;-80
2023/09/21 02:58:26;;;;;;;14.68;3.53;;;;;;;14.97;100.00;94060.56;5054154;28;20025;-80
2023/09/21 03:00:51;;;;;;;11.77;3.38;;;;;;;14.91;100.00;94062.56;5054116;28;20040;-80
2023/09/21 03:03:19;;;;;;;9.77;3.25;;;;;;;15.08;100.00;94069.00;5055603;28;20438;-80
2023/09/21 03:05:46;;;;;;;12.40;4.00;;;;;;;14.99;100.00;94063.69;5055276;28;20560;-80
2023/09/21 03:08:15;;;;;;;13.10;3.75;;;;;;;14.89;100.00;94069.22;5055832;28;20064;-80
2023/09/21 03:10:44;;;;;;;11.75;3.45;;;;;;;15.16;100.00;94078.03;5039727;28;20426;-80
2023/09/21 03:13:10;;;;;;;8.93;3.38;;;;;;;14.80;100.00;94064.69;5055583;28;21527;-80
2023/09/21 03:15:36;;;;;;;15.30;3.88;;;;;;;14.67;100.00;94052.31;5049936;28;20029;-80
2023/09/21 03:18:10;;;;;;;19.30;4.70;;;;;;;14.72;100.00;94054.06;5049046;28;20464;-80
2023/09/21 03:20:36;;;;;;;18.98;4.25;;;;;;;14.74;100.00;94057.19;5040268;28;20033;-80
2023/09/21 03:23:05;;;;;;;14.13;3.78;;;;;;;14.72;100.00;94046.94;5054882;28;20067;-80
2023/09/21 03:25:34;;;;;;;11.15;3.75;;;;;;;15.05;100.00;94051.91;5054582;28;20126;-80
2023/09/21 03:28:24;;;;;;;10.95;3.70;;;;;;;14.98;100.00;94051.59;5055252;28;20036;-80
2023/09/21 03:30:50;;;;;;;8.77;3.35;;;;;;;15.15;100.00;94048.25;5052702;28;20025;-80
2023/09/21 03:33:18;;;;;;;12.85;3.47;;;;;;;15.08;100.00;94045.25;5036636;28;20031;-80
2023/09/21 03:35:43;;;;;;;14.02;3.55;;;;;;;15.25;100.00;94026.84;5035612;28;20025;-80
2023/09/21 03:38:12;;;;;;;11.90;3.28;;;;;;;15.36;100.00;94023.97;5035545;28;20029;-80
2023/09/21 03:40:42;;;;;;;11.20;3.15;;;;;;;15.41;100.00;94021.97;5035557;28;20032;-80
2023/09/21 03:43:18;;;;;;;13.13;3.90;;;;;;;14.89;100.00;94021.72;5035682;28;20025;-80
2023/09/21 03:45:44;;;;;;;17.02;3.50;;;;;;;14.88;100.00;94030.72;5035605;28;20106;-80
2023/09/21 03:48:11;;;;;;;12.00;3.90;;;;;;;14.71;100.00;94034.78;5035292;28;20125;-80
2023/09/21 03:50:37;;;;;;;8.48;3.78;;;;;;;14.92;100.00;94026.41;5036651;28;20025;-80
2023/09/21 03:53:04;;;;;;;20.17;4.72;;;;;;;14.64;100.00;94022.03;5035427;28;20060;-80
2023/09/21 03:55:34;;;;;;;42.90;4.93;;;;;;;14.74;100.00;94020.28;5035259;28;20075;-80
2023/09/21 03:58:00;;;;;;;16.10;4.95;;;;;;;14.60;100.00;94015.03;5019091;28;20034;-80
2023/09/21 04:03:06;;;;;;;10.65;4.03;;;;;;;14.73;100.00;94016.09;5035462;28;20032;-82
2023/09/21 04:05:33;;;;;;;17.00;5.00;;;;;;;14.74;100.00;94015.00;5036530;28;20350;-82
2023/09/21 04:07:59;;;;;;;20.13;4.47;;;;;;;15.11;100.00;94011.13;5019034;28;20033;-82
2023/09/21 04:10:24;;;;;;;10.88;3.80;;;;;;;15.12;100.00;94010.06;5035262;28;20032;-81
2023/09/21 04:12:55;;;;;;;10.23;3.47;;;;;;;15.26;100.00;94012.56;5019026;28;20029;-82
2023/09/21 04:15:30;;;;;;;15.23;4.10;;;;;;;15.34;100.00;94008.41;5035119;28;20032;-82
2023/09/21 04:17:59;;;;;;;11.57;4.00;;;;;;;15.35;100.00;93999.44;5047455;28;20032;-81
2023/09/21 04:20:25;;;;;;;20.00;3.92;;;;;;;15.56;100.00;93996.22;5054958;28;20457;-81
2023/09/21 04:22:52;;;;;;;24.75;4.05;;;;;;;15.28;100.00;94001.72;5054989;28;20033;-81
2023/09/21 04:25:18;;;;;;;10.77;3.50;;;;;;;15.57;100.00;93997.78;5038770;28;20119;-81
2023/09/21 04:27:45;;;;;;;13.63;3.88;;;;;;;15.59;100.00;93995.59;5039458;28;20087;-82
2023/09/21 04:30:16;;;;;;;19.23;4.22;;;;;;;15.67;100.00;93991.41;5019384;28;20025;-82
2023/09/21 04:32:45;;;;;;;20.63;4.00;;;;;;;15.50;100.00;93997.47;5035018;28;20025;-81
2023/09/21 04:35:10;;;;;;;24.30;4.07;;;;;;;15.77;100.00;93992.97;5018998;28;20381;-81
2023/09/21 04:37:38;;;;;;;11.15;3.53;;;;;;;15.86;100.00;93996.41;5034879;28;20112;-82
2023/09/21 04:40:11;;;;;;;17.00;3.20;;;;;;;15.94;100.00;93995.69;5018901;28;20028;-82
2023/09/21 04:42:41;;;;;;;14.85;3.33;;;;;;;16.10;100.00;93993.34;5035083;28;20033;-81
2023/09/21 04:45:11;;;;;;;17.38;4.05;;;;;;;15.54;100.00;93993.09;5035014;28;20064;-82
2023/09/21 04:47:49;;;;;;;17.23;4.00;;;;;;;15.58;100.00;93998.56;5018960;28;20030;-82
2023/09/21 04:50:16;;;;;;;12.98;3.58;;;;;;;15.43;100.00;93999.75;5053566;28;20025;-81
2023/09/21 04:52:48;;;;;;;17.45;3.63;;;;;;;15.47;100.00;94006.75;5054822;28;20346;-81
2023/09/21 04:55:17;;;;;;;12.15;4.00;;;;;;;15.42;100.00;93998.97;5038775;28;20032;-82
2023/09/21 04:57:43;;;;;;;18.92;4.45;;;;;;;15.36;100.00;93998.34;5038230;28;20025;-81
2023/09/21 05:00:12;;;;;;;21.67;3.97;;;;;;;15.29;100.00;94000.66;5054434;28;20025;-81
2023/09/21 05:02:37;;;;;;;13.88;3.83;;;;;;;15.65;100.00;93998.88;5055400;28;20116;-81
2023/09/21 05:05:03;;;;;;;13.20;3.67;;;;;;;15.67;100.00;94000.13;5054302;28;20561;-82
2023/09/21 05:07:29;;;;;;;16.85;4.43;;;;;;;15.50;100.00;93994.81;5054300;28;20025;-81
2023/09/21 05:09:55;;;;;;;14.52;3.92;;;;;;;15.66;100.00;93997.78;5057774;28;20035;-82
2023/09/21 05:12:20;;;;;;;12.55;3.80;;;;;;;15.29;100.00;93994.59;5058123;28;20044;-82
2023/09/21 05:14:46;;;;;;;11.43;3.88;;;;;;;15.52;100.00;93996.03;5041651;28;20028;-82
2023/09/21 05:17:12;;;;;;;20.83;4.03;;;;;;;15.53;100.00;94004.75;5057982;28;20025;-81
2023/09/21 05:19:38;;;;;;;17.80;3.92;;;;;;;15.51;100.00;93997.13;5057857;28;20036;-82
2023/09/21 05:22:04;;;;;;;16.70;3.42;;;;;;;15.49;100.00;93999.31;5057523;28;20324;-82
2023/09/21 05:24:30;;;;;;;10.82;2.83;;;;;;;15.74;100.00;93988.31;5057890;28;20074;-82
2023/09/21 05:26:55;;;;;;;10.52;2.80;;;;;;;15.78;100.00;93990.03;5058888;28;20029;-82
2023/09/21 05:29:21;;;;;;;9.80;2.25;;;;;;;16.09;100.00;93978.56;5041367;28;20139;-82
2023/09/21 05:31:48;;;;;;;11.95;2.55;;;;;;;16.16;100.00;93990.56;5041374;28;20425;-81
2023/09/21 05:34:13;;;;;;;8.77;2.47;;;;;;;16.38;100.00;93986.97;5041386;28;20021;-81
2023/09/21 05:36:39;;;;;;;7.32;2.55;;;;;;;16.12;100.00;93995.69;5058859;28;20024;-81
2023/09/21 05:39:05;;;;;;;13.50;3.13;;;;;;;16.14;100.00;93988.22;5057523;28;20024;-82
2023/09/21 05:41:31;;;;;;;18.55;3.15;;;;;;;16.37;100.00;93988.06;5041200;28;20025;-81
2023/09/21 05:43:57;;;;;;;15.65;2.63;;;;;;;16.44;100.00;93987.59;5057416;28;20032;-81
2023/09/21 05:46:23;;;;;;;9.60;1.98;;;;;;;16.61;100.00;93989.41;5057388;28;20338;-82
2023/09/21 05:48:49;;;;;;;4.63;2.28;;;;;;;16.74;100.00;93993.72;5040892;28;20430;-82
2023/09/21 05:51:15;;;;;;;10.50;2.25;;;;;;;16.53;100.00;93989.13;5057496;28;20444;-82
2023/09/21 05:53:40;;;;;;;6.40;2.25;;;;;;;16.86;100.00;93995.75;5057576;28;20120;-82
2023/09/21 05:56:05;;;;;;;11.25;2.28;;;;;;;16.77;100.00;93993.09;5057334;28;20025;-82
2023/09/21 05:58:31;;;;;;;9.23;2.25;;;;;;;16.30;100.00;93980.59;5040723;28;20067;-82
2023/09/21 06:00:59;;;;;;;8.27;2.38;;;;;;;16.29;100.00;93978.25;5057200;28;20027;-82
2023/09/21 06:03:26;;;;;;;11.25;2.70;;;;;;;16.43;100.00;93978.09;5041132;28;20078;-82
2023/09/21 06:05:52;;;;;;;11.23;2.38;;;;;;;16.53;100.00;93978.53;5057530;28;20024;-82
2023/09/21 06:08:19;;;;;;;13.15;2.35;;;;;;;16.80;100.00;93963.38;5057068;28;20048;-82
2023/09/21 06:10:44;;;;;;;8.40;2.20;;;;;;;16.96;100.00;93976.09;5040585;28;20027;-82
2023/09/21 06:13:10;;;;;;;10.80;2.17;;;;;;;17.15;100.00;93970.44;5073928;28;20341;-82
2023/09/21 06:15:37;;;;;;;10.77;2.20;;;;;;;17.33;100.00;93975.66;5040551;28;20136;-82
2023/09/21 06:18:04;;;;;;;9.45;2.15;;;;;;;16.70;100.00;93974.31;5040690;28;20468;-82
2023/09/21 06:20:30;;;;;;;8.30;2.08;;;;;;;16.85;100.00;93972.22;5056288;28;20442;-82
2023/09/21 06:22:55;;;;;;;9.18;2.63;;;;;;;17.15;100.00;93977.59;5057059;28;20027;-82
2023/09/21 06:25:21;;;;;;;12.93;2.60;;;;;;;16.84;100.00;93973.34;5040319;28;20017;-82
2023/09/21 06:27:47;;;;;;;10.27;2.17;;;;;;;16.57;100.00;93973.41;5056655;28;20035;-82
2023/09/21 06:30:15;;;;;;;10.77;2.53;;;;;;;16.50;100.00;93973.88;5056635;28;20338;-82
2023/09/21 06:32:40;;;;;;;7.47;2.25;;;;;;;17.20;100.00;93972.91;5040598;28;20031;-82
2023/09/21 06:35:08;;;;;;;7.05;2.25;;;;;;;17.58;100.00;93981.91;5056965;28;20029;-82
2023/09/21 06:37:34;;;;;;;7.72;1.98;;;;;;;17.63;100.00;93976.41;5056503;28;20467;-82
2023/09/21 06:40:00;;;;;;;6.43;1.63;;;;;;;17.61;100.00;93975.19;5040152;28;20025;-82
2023/09/21 06:42:26;;;;;;;5.10;1.40;;;;;;;17.69;100.00;93978.88;5056436;28;20025;-82
2023/09/21 06:44:54;;;;;;;3.25;1.13;;;;;;;17.77;100.00;93978.03;5056598;28;20430;-82
2023/09/21 06:47:23;;;;;;;6.57;1.33;;;;;;;17.92;100.00;93988.06;5057432;28;20334;-82
2023/09/21 06:49:50;;;;;;;10.82;1.65;;;;;;;17.96;100.00;93988.19;5039846;28;20021;-82
2023/09/21 06:52:17;;;;;;;8.30;1.40;;;;;;;18.09;100.00;93994.38;5056332;28;20017;-82
2023/09/21 06:54:44;;;;;;;6.10;1.75;;;;;;;18.07;100.00;93993.91;5056269;28;20027;-82
2023/09/21 06:57:10;;;;;;;5.68;1.55;;;;;;;18.20;100.00;93992.09;5056060;28;20021;-82
2023/09/21 06:59:35;;;;;;;9.18;1.48;;;;;;;18.16;100.00;93993.84;5056113;28;20078;-82
2023/09/21 07:02:01;;;;;;;5.28;1.63;;;;;;;17.76;100.00;94002.97;5057226;28;20100;-82
2023/09/21 07:04:28;;;;;;;4.60;1.65;;;;;;;18.32;100.00;93999.31;5056308;28;20128;-82
2023/09/21 07:06:54;;;;;;;11.38;1.77;;;;;;;18.13;100.00;94000.56;5057084;28;20024;-82
2023/09/21 07:09:20;;;;;;;8.32;1.67;;;;;;;18.11;100.00;94002.00;5055943;28;20426;-82
2023/09/21 07:11:46;;;;;;;7.07;1.52;;;;;;;18.13;100.00;93992.63;5055935;28;20071;-82
2023/09/21 07:14:11;;;;;;;9.40;1.60;;;;;;;18.05;100.00;94007.50;5057049;28;20385;-82
2023/09/21 07:16:36;;;;;;;9.15;1.75;;;;;;;17.97;100.00;94003.00;5055761;28;20031;-82
2023/09/21 07:19:02;;;;;;;12.15;1.48;;;;;;;18.01;100.00;94011.09;5055731;28;20353;-82
2023/09/21 07:21:27;;;;;;;3.78;1.30;;;;;;;18.07;100.00;94009.81;5055634;28;20024;-81
2023/09/21 07:23:53;;;;;;;4.43;1.42;;;;;;;18.09;100.00;94019.00;5055627;28;20454;-82
2023/09/21 07:26:18;;;;;;;2.85;1.40;;;;;;;18.18;100.00;94021.59;5055738;28;20025;-82
2023/09/21 07:28:45;;;;;;;5.70;1.63;;;;;;;17.99;100.00;94022.00;5055602;28;20047;-81
2023/09/21 07:31:11;;;;;;;9.55;1.85;;;;;;;18.13;100.00;94026.28;5038251;28;20100;-82
2023/09/21 07:33:36;;;;;;;5.80;1.70;;;;;;;18.25;100.00;94025.59;5055649;28;20029;-82
2023/09/21 07:36:02;;;;;;;5.40;1.50;;;;;;;18.20;100.00;94026.56;5055501;28;20091;-82
2023/09/21 07:38:28;;;;;;;7.38;1.40;;;;;;;18.56;100.00;94027.06;5055430;28;20071;-82
2023/09/21 07:40:54;;;;;;;4.30;1.08;;;;;;;18.70;100.00;94019.59;5056652;28;20075;-82
2023/09/21 07:43:19;;;;;;;9.05;1.70;;;;;;;18.74;100.00;94022.38;5072308;28;20044;-82
2023/09/21 07:45:54;;;;;;;7.57;1.65;;;;;;;18.73;100.00;94026.88;5056624;28;20104;-81
2023/09/21 07:48:22;;;;;;;7.18;1.63;;;;;;;18.78;100.00;94029.31;5056487;28;20529;-81
2023/09/21 07:50:49;;;;;;;6.25;1.63;;;;;;;18.35;100.00;94033.16;5056051;28;20060;-82
2023/09/21 07:53:15;;;;;;;2.70;1.45;;;;;;;17.66;100.00;94038.56;5056491;28;20028;-82
2023/09/21 07:55:41;;;;;;;5.75;2.38;;;;;;;17.46;100.00;94043.50;5055340;28;20040;-82
2023/09/21 07:58:07;;;;;;;13.95;2.58;;;;;;;17.34;100.00;94036.22;5055488;28;20442;-82
2023/09/21 08:00:33;;;;;;;10.82;2.30;;;;;;;17.35;100.00;94045.72;5055284;28;20029;-82
2023/09/21 08:02:58;;;;;;;5.68;2.00;;;;;;;17.70;100.00;94046.66;5055194;28;20029;-82
2023/09/21 08:05:24;;;;;;;10.27;2.40;;;;;;;17.59;100.00;94035.66;5055218;28;20027;-82
2023/09/21 08:07:49;;;;;;;9.25;2.08;;;;;;;17.50;100.00;94046.28;5071968;28;20116;-82
2023/09/21 08:10:15;;;;;;;12.13;2.03;;;;;;;17.60;100.00;94037.97;5055205;28;20029;-82
2023/09/21 08:12:41;;;;;;;10.07;2.30;;;;;;;17.34;100.00;94032.81;5055346;28;20385;-82
2023/09/21 08:15:10;;;;;;;7.25;2.17;;;;;;;18.25;100.00;94039.63;5055318;28;20032;-82
2023/09/21 08:17:36;;;;;;;8.23;1.85;;;;;;;18.96;100.00;94037.13;5055023;28;20082;-82
2023/09/21 08:20:04;;;;;;;8.38;2.45;;;;;;;19.21;100.00;94031.88;5054992;28;20430;-82
2023/09/21 08:22:29;;;;;;;10.50;2.17;;;;;;;19.40;100.00;94041.22;5055049;28;20056;-82
2023/09/21 08:24:56;;;;;;;6.60;1.83;;;;;;;19.97;100.00;94036.13;5055455;28;20057;-82
2023/09/21 08:27:28;;;;;;;6.13;1.70;;;;;;;19.60;100.00;94032.34;5054820;28;20025;-82
2023/09/21 08:29:55;;;;;;;5.05;1.63;;;;;;;19.85;100.00;94040.31;5055138;28;20074;-82
2023/09/21 08:32:21;;;;;;;5.82;1.75;;;;;;;20.02;100.00;94043.84;5055742;28;20032;-82
2023/09/21 08:34:48;;;;;;;10.00;1.60;;;;;;;20.82;100.00;94051.41;5056090;28;20033;-82
2023/09/21 08:37:13;;;;;;;7.90;1.30;;;;;;;20.02;100.00;94038.53;5054886;28;20025;-82
2023/09/21 08:39:38;;;;;;;6.35;1.60;;;;;;;19.35;100.00;94042.97;5054939;28;20025;-83
2023/09/21 08:42:04;;;;;;;9.15;1.50;;;;;;;20.11;100.00;94051.69;5039325;28;20036;-82
2023/09/21 08:44:30;;;;;;;8.85;1.48;;;;;;;20.40;100.00;94050.66;5059903;28;20075;-82
2023/09/21 08:46:56;;;;;;;6.50;1.38;;;;;;;20.60;100.00;94051.56;5058551;28;20025;-82
2023/09/21 08:49:22;;;;;;;5.13;1.63;;;;;;;21.77;100.00;94049.91;5058623;28;20491;-82
2023/09/21 08:51:47;;;;;;;4.75;1.38;;;;;;;20.69;100.00;94045.31;5042091;28;20127;-82
2023/09/21 08:54:16;;;;;;;10.23;2.10;;;;;;;21.31;100.00;94040.47;5058394;28;20029;-82
2023/09/21 08:56:43;;;;;;;7.72;1.20;;;;;;;21.89;100.00;94036.47;5058498;28;20900;-82
2023/09/21 08:59:08;;;;;;;6.97;1.38;;;;;;;20.99;100.00;94037.78;5041944;28;20036;-82
2023/09/21 09:01:34;;;;;;;5.93;1.42;;;;;;;20.99;100.00;94035.09;5058571;28;20334;-82
2023/09/21 09:04:00;;;;;;;5.97;1.30;;;;;;;21.39;100.00;94029.97;5058713;28;20056;-82
2023/09/21 09:06:29;;;;;;;5.35;1.33;;;;;;;20.00;100.00;94038.84;5059522;28;20497;-82
2023/09/21 09:08:54;;;;;;;5.85;1.30;;;;;;;19.93;100.00;94038.66;5058229;28;20047;-82
2023/09/21 09:11:35;;;;;;;5.05;1.42;;;;;;;20.33;100.00;94035.25;5056239;28;20112;-82
2023/09/21 09:14:02;;;;;;;6.05;1.77;;;;;;;20.18;100.00;94028.75;5038357;28;20029;-82
2023/09/21 09:16:28;;;;;;;4.80;1.40;;;;;;;19.91;100.00;94014.28;5038229;28;20033;-82
2023/09/21 09:18:55;;;;;;;6.07;1.40;;;;;;;19.77;100.00;94019.94;5037653;28;20052;-82
2023/09/21 09:21:21;;;;;;;5.03;1.30;;;;;;;19.72;100.00;94020.91;5038319;28;20025;-82
2023/09/21 09:23:47;;;;;;;8.95;1.20;;;;;;;19.92;100.00;94019.25;5021756;28;20091;-82
2023/09/21 09:26:12;;;;;;;4.93;1.30;;;;;;;19.88;100.00;94012.28;5038043;28;20075;-82
2023/09/21 09:28:38;;;;;;;7.68;1.30;;;;;;;20.27;100.00;94019.88;5037887;28;20029;-82
2023/09/21 09:31:10;;;;;;;6.45;1.10;;;;;;;20.65;100.00;94023.16;5038986;28;20026;-82
2023/09/21 09:33:36;;;;;;;6.72;1.85;;;;;;;20.63;100.00;94012.84;5038962;28;20057;-82
2023/09/21 09:36:02;;;;;;;5.00;1.23;;;;;;;20.54;100.00;94023.63;5039053;28;20072;-83
2023/09/21 09:38:28;;;;;;;6.85;1.40;;;;;;;20.80;100.00;93997.69;5037615;28;20350;-82
2023/09/21 09:40:54;;;;;;;5.85;1.30;;;;;;;20.96;100.00;94005.72;5021391;28;20037;-82
2023/09/21 09:43:20;;;;;;;6.15;1.83;;;;;;;21.07;100.00;94008.66;5037701;28;20086;-82
2023/09/21 09:45:47;;;;;;;4.40;1.10;;;;;;;21.29;100.00;94009.94;5021278;28;20420;-83
2023/09/21 09:48:15;;;;;;;5.45;1.70;;;;;;;21.22;100.00;94005.22;5054288;28;20071;-82
2023/09/21 09:50:44;;;;;;;7.38;1.30;;;;;;;21.30;100.00;94009.59;5037571;28;20342;-82
2023/09/21 09:53:17;;;;;;;10.25;1.60;;;;;;;21.51;100.00;93997.88;5037157;28;20037;-83
2023/09/21 09:55:43;;;;;;;6.53;1.10;;;;;;;21.60;100.00;93997.72;5037239;28;20471;-83
2023/09/21 09:58:09;;;;;;;5.13;1.48;;;;;;;21.48;100.00;93995.91;5037348;28;20127;-82
2023/09/21 10:00:37;;;;;;;8.02;1.50;;;;;;;21.69;100.00;93994.91;5037382;28;20030;-83
2023/09/21 10:03:04;;;;;;;6.20;1.20;;;;;;;21.68;100.00;93988.78;5037428;28;20025;-82
2023/09/21 10:05:30;;;;;;;6.20;1.20;;;;;;;21.90;100.00;93991.94;5037790;28;20163;-82
2023/09/21 10:08:00;;;;;;;7.78;1.45;;;;;;;21.98;100.00;93982.94;5020837;28;20025;-83
2023/09/21 10:10:30;;;;;;;3.97;1.30;;;;;;;21.69;100.00;93994.91;5020900;28;20031;-83
2023/09/21 10:12:56;;;;;;;5.40;1.30;;;;;;;21.81;100.00;94002.78;5020981;28;20406;-82
2023/09/21 10:15:23;;;;;;;3.55;1.15;;;;;;;21.99;100.00;94000.47;5037295;28;20132;-83
2023/09/21 10:17:50;;;;;;;4.97;1.10;;;;;;;22.02;100.00;94001.69;5036982;28;20032;-82
2023/09/21 10:20:27;;;;;;;6.72;1.20;;;;;;;21.84;100.00;93998.63;5036904;28;20393;-83
2023/09/21 10:22:53;;;;;;;2.63;1.13;;;;;;;22.02;100.00;94002.47;5038246;28;20033;-83
2023/09/21 10:25:46;;;;;;;3.95;1.02;;;;;;;21.99;100.00;94011.16;5036903;28;20029;-83
2023/09/21 10:28:27;;;;;;;3.80;1.10;;;;;;;21.91;97.21;94011.34;5036836;28;20025;-83
2023/09/21 10:31:22;;;;;;;3.63;1.00;;;;;;;21.94;98.75;94005.31;5037989;28;20025;-83
2023/09/21 10:34:05;;;;;;;4.38;1.55;;;;;;;22.21;93.46;94003.59;5028260;28;20041;-83
2023/09/21 10:36:31;;;;;;;4.88;1.40;;;;;;;22.46;100.00;94006.75;5036737;28;20105;-83
2023/09/21 10:39:05;;;;;;;6.68;1.13;;;;;;;22.49;100.00;94007.19;5020155;28;20030;-83
2023/09/21 10:41:35;;;;;;;3.83;1.13;;;;;;;22.83;94.94;94004.78;5037682;28;20039;-83
2023/09/21 10:44:02;;;;;;;6.10;1.40;;;;;;;22.69;98.57;93994.63;5020363;28;20422;-82
2023/09/21 10:46:31;;;;;;;6.15;1.10;;;;;;;22.49;85.21;93997.31;5036959;28;20029;-82
2023/09/21 10:49:06;;;;;;;4.15;1.00;;;;;;;22.98;84.91;93993.22;5036324;28;20139;-82
2023/09/21 10:51:39;;;;;;;5.22;1.15;;;;;;;22.90;81.83;93993.47;5037484;28;20048;-82
2023/09/21 10:54:07;;;;;;;4.50;1.20;;;;;;;22.37;78.50;93979.50;5020597;28;20486;-82
2023/09/21 10:56:34;;;;;;;5.05;1.17;;;;;;;22.68;77.12;93983.19;5036388;28;20049;-82
2023/09/21 10:59:00;;;;;;;8.20;1.00;;;;;;;22.74;83.19;93976.41;5036200;28;20092;-82
2023/09/21 11:01:25;;;;;;;7.80;1.05;;;;;;;23.04;83.74;93971.56;5019858;28;20064;-82
2023/09/21 11:03:51;;;;;;;8.30;1.60;;;;;;;23.38;77.65;93974.41;5036122;28;20414;-82
2023/09/21 11:06:17;;;;;;;4.32;1.10;;;;;;;23.45;80.94;93966.50;5036100;28;20025;-82
2023/09/21 11:08:45;;;;;;;7.63;1.30;;;;;;;23.08;78.64;93959.81;5037214;28;20415;-82
2023/09/21 11:11:12;;;;;;;5.78;1.23;;;;;;;22.82;78.11;93961.28;5036044;28;20060;-82
2023/09/21 11:13:39;;;;;;;4.35;1.20;;;;;;;22.64;76.80;93958.28;5020049;28;20061;-82
2023/09/21 11:16:05;;;;;;;6.13;1.13;;;;;;;22.37;81.57;93955.47;5019772;28;20075;-82
2023/09/21 11:18:32;;;;;;;3.47;1.35;;;;;;;22.14;91.54;93953.53;5019711;28;20071;-82
2023/09/21 11:20:58;;;;;;;5.97;1.00;;;;;;;22.09;82.17;93956.47;5019618;28;20076;-82
2023/09/21 11:23:24;;;;;;;4.82;1.10;;;;;;;21.83;89.75;93952.56;5035892;28;20028;-83
2023/09/21 11:25:59;;;;;;;6.80;0.90;;;;;;;21.84;91.32;93951.44;5035843;28;20032;-82